sensor_id;sensor_type;location;lat;lon;timestamp;P1;durP1;ratioP1;P2;durP2;ratioP2
77248;SDS011;66280;45.124;20.718;2023-02-16T00:08:48;78.47;;;29.83;;
77248;SDS011;66280;45.124;20.718;2023-02-16T00:18:50;66.77;;;27.67;;
77248;SDS011;66280;45.124;20.718;2023-02-16T00:28:51;73.25;;;29.67;;
77248;SDS011;66280;45.124;20.718;2023-02-16T00:38:53;77.13;;;31.80;;
77248;SDS011;66280;45.124;20.718;2023-02-16T00:48:53;61.95;;;27.10;;
77248;SDS011;66280;45.124;20.718;2023-02-16T00:58:54;64.43;;;26.15;;
77248;SDS011;66280;45.124;20.718;2023-02-16T01:08:59;79.57;;;30.33;;
77248;SDS011;66280;45.124;20.718;2023-02-16T01:19:10;69.73;;;27.43;;
77248;SDS011;66280;45.124;20.718;2023-02-16T01:29:15;76.72;;;33.10;;
77248;SDS011;66280;45.124;20.718;2023-02-16T01:39:18;61.60;;;25.13;;
77248;SDS011;66280;45.124;20.718;2023-02-16T01:49:20;68.72;;;29.85;;
77248;SDS011;66280;45.124;20.718;2023-02-16T02:09:38;52.53;;;23.00;;
77248;SDS011;66280;45.124;20.718;2023-02-16T02:20:03;56.88;;;23.27;;
77248;SDS011;66280;45.124;20.718;2023-02-16T02:50:57;71.73;;;28.33;;
77248;SDS011;66280;45.124;20.718;2023-02-16T03:00:59;59.40;;;25.97;;
77248;SDS011;66280;45.124;20.718;2023-02-16T03:11:02;64.70;;;24.02;;
77248;SDS011;66280;45.124;20.718;2023-02-16T03:21:08;60.43;;;24.63;;
77248;SDS011;66280;45.124;20.718;2023-02-16T03:31:11;59.13;;;25.73;;
77248;SDS011;66280;45.124;20.718;2023-02-16T03:41:14;63.50;;;26.70;;
77248;SDS011;66280;45.124;20.718;2023-02-16T03:51:15;65.13;;;27.37;;
77248;SDS011;66280;45.124;20.718;2023-02-16T04:01:16;72.33;;;31.00;;
77248;SDS011;66280;45.124;20.718;2023-02-16T04:11:17;69.80;;;29.80;;
77248;SDS011;66280;45.124;20.718;2023-02-16T04:21:17;59.00;;;25.63;;
77248;SDS011;66280;45.124;20.718;2023-02-16T04:31:18;70.60;;;30.40;;
77248;SDS011;66280;45.124;20.718;2023-02-16T04:41:19;46.83;;;20.90;;
77248;SDS011;66280;45.124;20.718;2023-02-16T04:51:19;56.90;;;23.27;;
77248;SDS011;66280;45.124;20.718;2023-02-16T05:01:20;58.73;;;24.43;;
77248;SDS011;66280;45.124;20.718;2023-02-16T05:11:24;38.83;;;18.30;;
77248;SDS011;66280;45.124;20.718;2023-02-16T05:21:24;40.83;;;19.47;;
77248;SDS011;66280;45.124;20.718;2023-02-16T05:31:25;47.20;;;19.85;;
77248;SDS011;66280;45.124;20.718;2023-02-16T05:41:26;42.50;;;20.33;;
77248;SDS011;66280;45.124;20.718;2023-02-16T05:51:27;46.20;;;20.83;;
77248;SDS011;66280;45.124;20.718;2023-02-16T06:01:28;35.90;;;17.83;;
77248;SDS011;66280;45.124;20.718;2023-02-16T06:11:28;56.50;;;23.38;;
77248;SDS011;66280;45.124;20.718;2023-02-16T06:21:29;43.37;;;19.73;;
77248;SDS011;66280;45.124;20.718;2023-02-16T06:31:30;35.10;;;15.93;;
77248;SDS011;66280;45.124;20.718;2023-02-16T06:41:31;38.73;;;19.50;;
77248;SDS011;66280;45.124;20.718;2023-02-16T06:51:32;54.23;;;22.53;;
77248;SDS011;66280;45.124;20.718;2023-02-16T07:01:33;49.23;;;26.00;;
77248;SDS011;66280;45.124;20.718;2023-02-16T07:11:33;48.77;;;25.50;;
77248;SDS011;66280;45.124;20.718;2023-02-16T07:21:34;37.53;;;16.07;;
77248;SDS011;66280;45.124;20.718;2023-02-16T07:31:35;42.13;;;20.67;;
77248;SDS011;66280;45.124;20.718;2023-02-16T07:41:35;46.93;;;24.67;;
77248;SDS011;66280;45.124;20.718;2023-02-16T07:51:41;41.77;;;21.03;;
77248;SDS011;66280;45.124;20.718;2023-02-16T08:01:41;63.93;;;32.90;;
77248;SDS011;66280;45.124;20.718;2023-02-16T08:11:42;68.00;;;35.17;;
77248;SDS011;66280;45.124;20.718;2023-02-16T08:21:43;48.95;;;26.55;;
77248;SDS011;66280;45.124;20.718;2023-02-16T08:31:43;47.53;;;26.53;;
77248;SDS011;66280;45.124;20.718;2023-02-16T08:41:45;50.00;;;30.38;;
77248;SDS011;66280;45.124;20.718;2023-02-16T08:51:47;46.77;;;29.30;;
77248;SDS011;66280;45.124;20.718;2023-02-16T09:01:49;37.17;;;24.77;;
77248;SDS011;66280;45.124;20.718;2023-02-16T09:11:50;37.42;;;20.48;;
77248;SDS011;66280;45.124;20.718;2023-02-16T09:21:51;55.20;;;31.13;;
77248;SDS011;66280;45.124;20.718;2023-02-16T09:31:52;35.75;;;21.85;;
77248;SDS011;66280;45.124;20.718;2023-02-16T09:52:18;61.60;;;38.13;;
77248;SDS011;66280;45.124;20.718;2023-02-16T10:12:42;46.23;;;29.47;;
77248;SDS011;66280;45.124;20.718;2023-02-16T10:22:59;40.67;;;25.75;;
77248;SDS011;66280;45.124;20.718;2023-02-16T10:43:41;51.10;;;29.90;;
77248;SDS011;66280;45.124;20.718;2023-02-16T10:53:45;64.25;;;35.45;;
77248;SDS011;66280;45.124;20.718;2023-02-16T11:03:48;43.90;;;29.97;;
77248;SDS011;66280;45.124;20.718;2023-02-16T11:13:56;43.13;;;29.58;;
77248;SDS011;66280;45.124;20.718;2023-02-16T11:23:59;42.87;;;29.47;;
77248;SDS011;66280;45.124;20.718;2023-02-16T11:34:02;35.72;;;24.52;;
77248;SDS011;66280;45.124;20.718;2023-02-16T11:44:19;38.23;;;27.93;;
77248;SDS011;66280;45.124;20.718;2023-02-16T11:54:25;42.30;;;28.98;;
77248;SDS011;66280;45.124;20.718;2023-02-16T12:35:36;41.70;;;30.63;;
77248;SDS011;66280;45.124;20.718;2023-02-16T12:45:43;35.63;;;28.30;;
77248;SDS011;66280;45.124;20.718;2023-02-16T12:55:55;37.35;;;27.23;;
77248;SDS011;66280;45.124;20.718;2023-02-16T13:06:12;39.40;;;28.97;;
77248;SDS011;66280;45.124;20.718;2023-02-16T13:16:25;37.63;;;27.47;;
77248;SDS011;66280;45.124;20.718;2023-02-16T13:26:45;41.00;;;27.98;;
77248;SDS011;66280;45.124;20.718;2023-02-16T13:47:10;37.25;;;24.50;;
77248;SDS011;66280;45.124;20.718;2023-02-16T13:57:14;38.10;;;24.70;;
77248;SDS011;66280;45.124;20.718;2023-02-16T14:07:47;41.70;;;25.43;;
77248;SDS011;66280;45.124;20.718;2023-02-16T14:18:30;38.55;;;25.73;;
77248;SDS011;66280;45.124;20.718;2023-02-16T14:38:33;48.00;;;27.10;;
77248;SDS011;66280;45.124;20.718;2023-02-16T15:09:55;42.23;;;25.23;;
77248;SDS011;66280;45.124;20.718;2023-02-16T15:40:32;65.53;;;29.20;;
77248;SDS011;66280;45.124;20.718;2023-02-16T15:50:33;89.10;;;40.67;;
77248;SDS011;66280;45.124;20.718;2023-02-16T16:00:34;132.97;;;62.27;;
77248;SDS011;66280;45.124;20.718;2023-02-16T16:10:35;151.43;;;66.70;;
77248;SDS011;66280;45.124;20.718;2023-02-16T16:20:37;69.30;;;37.73;;
77248;SDS011;66280;45.124;20.718;2023-02-16T16:30:38;57.97;;;32.67;;
77248;SDS011;66280;45.124;20.718;2023-02-16T16:40:39;71.40;;;35.67;;
77248;SDS011;66280;45.124;20.718;2023-02-16T16:50:40;68.77;;;33.10;;
77248;SDS011;66280;45.124;20.718;2023-02-16T17:00:40;62.10;;;34.73;;
77248;SDS011;66280;45.124;20.718;2023-02-16T17:10:41;103.57;;;46.80;;
77248;SDS011;66280;45.124;20.718;2023-02-16T17:20:42;85.97;;;44.15;;
77248;SDS011;66280;45.124;20.718;2023-02-16T17:30:44;107.93;;;49.83;;
77248;SDS011;66280;45.124;20.718;2023-02-16T17:40:48;157.00;;;72.03;;
77248;SDS011;66280;45.124;20.718;2023-02-16T17:50:49;125.80;;;56.03;;
77248;SDS011;66280;45.124;20.718;2023-02-16T18:00:50;152.33;;;66.40;;
77248;SDS011;66280;45.124;20.718;2023-02-16T18:10:52;235.20;;;86.70;;
77248;SDS011;66280;45.124;20.718;2023-02-16T18:20:53;195.37;;;81.10;;
77248;SDS011;66280;45.124;20.718;2023-02-16T18:30:54;192.10;;;85.57;;
77248;SDS011;66280;45.124;20.718;2023-02-16T18:40:54;204.73;;;92.13;;
77248;SDS011;66280;45.124;20.718;2023-02-16T18:50:55;156.10;;;66.53;;
77248;SDS011;66280;45.124;20.718;2023-02-16T19:00:56;150.25;;;64.72;;
77248;SDS011;66280;45.124;20.718;2023-02-16T19:10:56;101.13;;;51.10;;
77248;SDS011;66280;45.124;20.718;2023-02-16T19:20:57;94.80;;;47.77;;
77248;SDS011;66280;45.124;20.718;2023-02-16T19:31:01;95.65;;;49.42;;
77248;SDS011;66280;45.124;20.718;2023-02-16T19:41:23;223.63;;;82.63;;
77248;SDS011;66280;45.124;20.718;2023-02-16T19:51:28;79.72;;;39.20;;
77248;SDS011;66280;45.124;20.718;2023-02-16T20:01:29;69.23;;;38.57;;
77248;SDS011;66280;45.124;20.718;2023-02-16T20:11:29;113.40;;;51.17;;
77248;SDS011;66280;45.124;20.718;2023-02-16T20:21:30;109.43;;;52.87;;
77248;SDS011;66280;45.124;20.718;2023-02-16T20:31:32;250.25;;;108.30;;
77248;SDS011;66280;45.124;20.718;2023-02-16T20:41:37;232.67;;;104.83;;
77248;SDS011;66280;45.124;20.718;2023-02-16T20:51:38;280.63;;;121.47;;
77248;SDS011;66280;45.124;20.718;2023-02-16T21:01:40;243.82;;;106.25;;
77248;SDS011;66280;45.124;20.718;2023-02-16T21:11:41;277.47;;;115.43;;
77248;SDS011;66280;45.124;20.718;2023-02-16T21:21:42;285.87;;;122.30;;
77248;SDS011;66280;45.124;20.718;2023-02-16T21:31:43;307.90;;;133.38;;
77248;SDS011;66280;45.124;20.718;2023-02-16T21:41:44;281.85;;;123.68;;
77248;SDS011;66280;45.124;20.718;2023-02-16T21:51:45;234.80;;;99.75;;
77248;SDS011;66280;45.124;20.718;2023-02-16T22:01:47;218.07;;;89.57;;
77248;SDS011;66280;45.124;20.718;2023-02-16T22:11:49;238.53;;;93.27;;
77248;SDS011;66280;45.124;20.718;2023-02-16T22:21:50;228.00;;;88.35;;
77248;SDS011;66280;45.124;20.718;2023-02-16T22:31:50;212.48;;;84.72;;
77248;SDS011;66280;45.124;20.718;2023-02-16T22:41:51;215.37;;;88.73;;
77248;SDS011;66280;45.124;20.718;2023-02-16T22:51:51;308.37;;;124.30;;
77248;SDS011;66280;45.124;20.718;2023-02-16T23:01:52;263.42;;;106.28;;
77248;SDS011;66280;45.124;20.718;2023-02-16T23:11:53;204.60;;;85.27;;
77248;SDS011;66280;45.124;20.718;2023-02-16T23:21:54;224.27;;;95.57;;
77248;SDS011;66280;45.124;20.718;2023-02-16T23:31:55;206.17;;;84.70;;
